Time;durP1;ratioP1;P1;durP2;ratioP2;P2;SDS_P1;SDS_P2;PMS_P1;PMS_P2;Temp;Humidity;BMP_temperature;BMP_pressure;BME280_temperature;BME280_humidity;BME280_pressure;Samples;Min_cycle;Max_cycle;Signal;HPM_P1;HPM_P2
2023/01/24 00:00:03;;;;;;;13.20;11.90;;;;;;;2.27;100.00;103850.16;5076923;28;20055;-34
2023/01/24 00:02:29;;;;;;;13.85;12.40;;;;;;;2.28;100.00;103849.19;5076042;28;20487;-34
2023/01/24 00:04:54;;;;;;;13.30;11.90;;;;;;;2.28;100.00;103850.06;5076331;28;20025;-34
2023/01/24 00:07:19;;;;;;;14.00;12.37;;;;;;;2.29;100.00;103841.13;5076525;28;20028;-34
2023/01/24 00:09:45;;;;;;;14.70;13.20;;;;;;;2.29;100.00;103851.78;5076418;28;20108;-34
2023/01/24 00:12:10;;;;;;;14.17;12.67;;;;;;;2.19;100.00;103842.66;5076406;28;20064;-34
2023/01/24 00:14:35;;;;;;;13.07;11.67;;;;;;;2.22;100.00;103846.94;5075458;28;20103;-34
2023/01/24 00:17:01;;;;;;;13.57;12.10;;;;;;;2.24;100.00;103851.22;5076252;28;20444;-34
2023/01/24 00:19:26;;;;;;;13.10;11.67;;;;;;;2.23;100.00;103843.31;5076615;28;20445;-35
2023/01/24 00:21:51;;;;;;;13.97;12.27;;;;;;;2.17;100.00;103841.91;5075975;28;20020;-35
2023/01/24 00:24:16;;;;;;;13.67;12.17;;;;;;;2.25;100.00;103852.94;5076243;28;20032;-34
2023/01/24 00:26:42;;;;;;;14.10;12.50;;;;;;;2.25;100.00;103850.28;5075804;28;20024;-34
2023/01/24 00:29:07;;;;;;;13.67;12.13;;;;;;;2.25;100.00;103846.75;5075631;28;20494;-34
2023/01/24 00:31:33;;;;;;;13.00;11.43;;;;;;;2.27;100.00;103837.66;5076006;28;20077;-34
2023/01/24 00:33:58;;;;;;;13.90;12.27;;;;;;;2.26;100.00;103822.63;5076062;28;20356;-34
2023/01/24 00:36:23;;;;;;;13.73;12.23;;;;;;;2.29;100.00;103825.09;5075896;28;20074;-34
2023/01/24 00:38:49;;;;;;;14.23;12.83;;;;;;;2.26;100.00;103819.94;5076445;28;20028;-34
2023/01/24 00:41:14;;;;;;;14.03;12.47;;;;;;;2.24;100.00;103811.16;5076084;28;20056;-34
2023/01/24 00:43:39;;;;;;;13.63;11.90;;;;;;;2.29;100.00;103819.75;5075558;28;20100;-34
2023/01/24 00:46:06;;;;;;;16.20;12.10;;;;;;;2.30;100.00;103817.94;5075768;28;20035;-34
2023/01/24 00:48:31;;;;;;;14.02;12.32;;;;;;;2.25;100.00;103822.72;5076502;28;20028;-34
2023/01/24 00:50:57;;;;;;;15.20;12.73;;;;;;;2.25;100.00;103820.06;5075930;28;20020;-34
2023/01/24 00:53:22;;;;;;;15.30;13.70;;;;;;;2.23;100.00;103819.28;5076553;28;20453;-34
2023/01/24 00:55:48;;;;;;;14.40;12.90;;;;;;;2.22;100.00;103823.78;5076312;28;20033;-34
2023/01/24 00:58:14;;;;;;;14.30;12.77;;;;;;;2.21;100.00;103829.22;5075414;28;20051;-34
2023/01/24 01:00:40;;;;;;;14.65;13.13;;;;;;;2.15;100.00;103819.81;5075449;28;20046;-34
2023/01/24 01:03:18;;;;;;;12.95;11.65;;;;;;;2.16;100.00;103813.50;5075990;28;20216;-34
2023/01/24 01:05:44;;;;;;;14.00;11.95;;;;;;;2.10;100.00;103805.03;5075074;28;20036;-34
2023/01/24 01:08:11;;;;;;;14.65;13.15;;;;;;;2.13;100.00;103811.03;5075931;28;20031;-34
2023/01/24 01:10:36;;;;;;;12.88;11.55;;;;;;;2.13;100.00;103808.38;5074939;28;20027;-34
2023/01/24 01:13:03;;;;;;;14.30;12.80;;;;;;;2.11;100.00;103807.63;5075795;28;20419;-34
2023/01/24 01:15:29;;;;;;;12.45;11.20;;;;;;;2.03;100.00;103793.94;5075082;28;20024;-34
2023/01/24 01:17:54;;;;;;;13.15;11.75;;;;;;;2.12;100.00;103809.34;5075159;28;20506;-34
2023/01/24 01:20:20;;;;;;;13.63;11.57;;;;;;;2.08;100.00;103796.28;5075395;28;20024;-34
2023/01/24 01:22:45;;;;;;;12.00;10.63;;;;;;;2.10;100.00;103805.94;5075876;28;20258;-34
2023/01/24 01:25:11;;;;;;;12.52;11.23;;;;;;;1.98;100.00;103788.03;5074783;28;20028;-34
2023/01/24 01:27:36;;;;;;;12.77;11.40;;;;;;;2.03;100.00;103799.28;5075145;28;20028;-34
2023/01/24 01:30:02;;;;;;;12.27;10.97;;;;;;;1.99;100.00;103806.63;5074995;28;20182;-39
2023/01/24 01:32:28;;;;;;;10.88;9.73;;;;;;;2.06;100.00;103809.75;5075617;28;20369;-34
2023/01/24 01:34:53;;;;;;;11.87;10.57;;;;;;;2.01;100.00;103802.06;5074852;28;20028;-34
2023/01/24 01:37:19;;;;;;;13.17;10.87;;;;;;;2.08;100.00;103817.66;5074384;28;20630;-34
2023/01/24 01:39:44;;;;;;;11.60;10.40;;;;;;;2.11;100.00;103812.13;5073928;28;20479;-34
2023/01/24 01:42:09;;;;;;;12.10;10.90;;;;;;;2.11;100.00;103815.63;5074641;28;20025;-33
2023/01/24 01:44:37;;;;;;;11.93;10.73;;;;;;;2.10;100.00;103811.25;5074380;28;20418;-33
2023/01/24 01:47:22;;;;;;;13.43;11.27;;;;;;;2.11;100.00;103814.78;5075128;28;20068;-35
2023/01/24 01:50:14;;;;;;;12.13;10.82;;;;;;;2.15;100.00;103809.13;5074405;28;20021;-34
2023/01/24 01:52:42;;;;;;;12.20;10.60;;;;;;;2.15;100.00;103810.94;5074464;28;20021;-34
2023/01/24 01:55:19;;;;;;;12.20;10.88;;;;;;;2.16;100.00;103808.19;5074417;28;20020;-34
2023/01/24 01:57:45;;;;;;;;;;;;;;;2.21;100.00;103807.88;5075259;28;20045;-34
2023/01/24 02:00:19;;;;;;;12.63;10.68;;;;;;;2.19;100.00;103807.94;5074586;28;20053;-34
2023/01/24 02:03:37;;;;;;;13.25;11.23;;;;;;;2.19;100.00;103802.59;5074258;28;20031;-35
2023/01/24 02:05:41;;;;;;;13.30;11.00;;;;;;;2.15;100.00;103803.81;5073843;28;20461;-34
2023/01/24 02:08:11;;;;;;;14.07;11.70;;;;;;;2.09;100.00;103790.00;5073800;28;20028;-34
2023/01/24 02:13:21;;;;;;;13.57;11.88;;;;;;;2.05;100.00;103784.03;5074404;28;20510;-34
2023/01/24 02:16:03;;;;;;;15.10;13.07;;;;;;;1.96;100.00;103777.47;5074018;28;20029;-34
2023/01/24 02:18:30;;;;;;;13.57;12.00;;;;;;;2.11;100.00;103801.44;5074575;28;20483;-34
2023/01/24 02:20:56;;;;;;;14.50;13.00;;;;;;;2.04;100.00;103799.16;5073654;28;20028;-34
2023/01/24 02:23:40;;;;;;;14.68;13.00;;;;;;;2.01;100.00;103791.38;5074486;28;20032;-34
2023/01/24 02:26:16;;;;;;;13.88;12.48;;;;;;;2.03;100.00;103792.13;5074268;28;20032;-34
2023/01/24 02:29:02;;;;;;;;;;;;;;;2.08;100.00;103791.81;5074619;28;20024;-34
2023/01/24 02:31:28;;;;;;;13.52;12.10;;;;;;;2.06;100.00;103793.75;5073464;28;19904;-34
2023/01/24 02:33:53;;;;;;;16.25;14.00;;;;;;;2.04;100.00;103799.16;5074407;28;20028;-34
2023/01/24 02:36:28;;;;;;;15.33;13.73;;;;;;;1.98;100.00;103801.38;5073848;28;20064;-34
2023/01/24 02:38:56;;;;;;;15.48;13.07;;;;;;;1.95;100.00;103789.13;5074542;28;20349;-34
2023/01/24 02:41:28;;;;;;;14.52;12.82;;;;;;;2.00;100.00;103797.69;5074478;28;20031;-35
2023/01/24 02:43:56;;;;;;;15.48;13.23;;;;;;;2.05;100.00;103805.38;5073985;28;20020;-34
2023/01/24 02:46:21;;;;;;;16.08;13.73;;;;;;;1.97;100.00;103792.53;5073883;28;20111;-34
2023/01/24 02:48:51;;;;;;;15.73;13.10;;;;;;;2.04;100.00;103806.31;5073963;28;20417;-35
2023/01/24 02:54:00;;;;;;;15.30;13.65;;;;;;;1.97;100.00;103789.00;5073353;28;20038;-35
2023/01/24 02:59:09;;;;;;;14.98;12.52;;;;;;;2.04;100.00;103801.81;5073870;28;20379;-34
2023/01/24 03:01:34;;;;;;;15.00;12.77;;;;;;;1.93;100.00;103782.16;5073763;28;20024;-34
2023/01/24 03:04:00;;;;;;;13.63;12.10;;;;;;;2.02;100.00;103795.75;5073771;28;20021;-34
2023/01/24 03:06:25;;;;;;;15.93;13.45;;;;;;;2.04;100.00;103800.97;5073411;28;20429;-34
2023/01/24 03:08:50;;;;;;;15.03;12.50;;;;;;;2.05;100.00;103802.72;5073700;28;20036;-34
2023/01/24 03:11:16;;;;;;;15.97;13.23;;;;;;;1.90;100.00;103777.00;5073663;28;20035;-34
2023/01/24 03:35:34;;;;;;;15.43;12.77;;;;;;;1.89;100.00;103791.31;5073119;28;20036;-34
2023/01/24 03:40:44;;;;;;;15.88;13.82;;;;;;;1.82;100.00;103785.56;5073471;28;20439;-34
2023/01/24 03:43:09;;;;;;;15.63;13.73;;;;;;;1.90;100.00;103793.03;5073032;28;20021;-35
2023/01/24 03:45:37;;;;;;;15.17;13.13;;;;;;;1.88;100.00;103784.28;5073988;28;20033;-34
2023/01/24 03:48:14;;;;;;;15.55;13.18;;;;;;;1.90;100.00;103787.69;5072703;28;20040;-34
2023/01/24 03:53:30;;;;;;;16.02;14.20;;;;;;;1.87;100.00;103786.09;5073489;28;20047;-34
2023/01/24 03:55:57;;;;;;;15.38;13.65;;;;;;;1.86;100.00;103786.22;5072799;28;20103;-35
2023/01/24 03:58:24;;;;;;;15.75;14.02;;;;;;;1.86;100.00;103788.88;5073433;28;20036;-34
2023/01/24 04:00:51;;;;;;;14.52;12.75;;;;;;;1.90;100.00;103803.69;5073079;28;20051;-35
2023/01/24 04:03:16;;;;;;;15.48;13.63;;;;;;;1.80;100.00;103780.28;5073940;28;20483;-35
2023/01/24 04:05:41;;;;;;;15.77;14.07;;;;;;;1.82;100.00;103796.22;5076536;28;20036;-35
2023/01/24 04:08:07;;;;;;;14.27;12.70;;;;;;;1.77;100.00;103793.00;5076168;28;20028;-35
2023/01/24 04:10:33;;;;;;;14.82;13.23;;;;;;;1.73;100.00;103780.81;5076480;28;20049;-35
2023/01/24 04:12:59;;;;;;;;;;;;;;;1.82;100.00;103795.38;5076487;28;20427;-35
2023/01/24 04:15:29;;;;;;;16.13;13.93;;;;;;;1.53;100.00;103760.78;5076506;28;20010;-35
2023/01/24 04:17:56;;;;;;;15.55;13.10;;;;;;;1.56;100.00;103763.25;5076885;28;20050;-34
2023/01/24 04:20:22;;;;;;;14.70;13.07;;;;;;;1.76;100.00;103792.16;5076557;28;20032;-35
2023/01/24 04:22:48;;;;;;;15.75;14.00;;;;;;;1.74;100.00;103786.03;5075218;28;20036;-35
2023/01/24 04:25:13;;;;;;;15.03;13.17;;;;;;;1.70;100.00;103792.53;5076139;28;20464;-35
2023/01/24 04:27:39;;;;;;;15.10;13.20;;;;;;;1.73;100.00;103802.16;5076090;28;20271;-38
2023/01/24 04:30:06;;;;;;;15.03;13.30;;;;;;;1.63;100.00;103796.56;5076930;28;20032;-34
2023/01/24 04:32:31;;;;;;;14.05;12.55;;;;;;;1.65;100.00;103794.66;5076160;28;20020;-35
2023/01/24 04:34:57;;;;;;;14.23;12.73;;;;;;;1.63;100.00;103785.06;5076336;28;20103;-35
2023/01/24 04:37:22;;;;;;;13.97;12.50;;;;;;;1.67;100.00;103795.41;5075595;28;20020;-35
2023/01/24 04:39:47;;;;;;;15.43;12.57;;;;;;;1.63;100.00;103796.56;5076506;28;20025;-35
2023/01/24 04:42:13;;;;;;;14.60;12.37;;;;;;;1.68;100.00;103794.47;5075877;28;20024;-35
2023/01/24 04:44:38;;;;;;;14.47;12.57;;;;;;;1.55;100.00;103789.06;5075837;28;20020;-35
2023/01/24 04:47:04;;;;;;;13.17;11.80;;;;;;;1.64;100.00;103798.28;5075465;28;20028;-35
2023/01/24 04:49:29;;;;;;;15.98;14.20;;;;;;;1.61;100.00;103795.84;5076241;28;20119;-35
2023/01/24 04:51:54;;;;;;;14.30;12.33;;;;;;;1.61;100.00;103798.50;5075665;28;20066;-35
2023/01/24 04:54:20;;;;;;;13.83;12.33;;;;;;;1.61;100.00;103798.50;5075927;28;20099;-34
2023/01/24 04:56:45;;;;;;;13.67;12.13;;;;;;;1.60;100.00;103802.09;5075301;28;20098;-35
2023/01/24 04:59:12;;;;;;;13.93;12.43;;;;;;;1.61;100.00;103800.28;5076188;28;20027;-34
2023/01/24 05:01:37;;;;;;;13.30;11.77;;;;;;;1.64;100.00;103794.75;5075460;28;20020;-34
2023/01/24 05:04:03;;;;;;;12.68;11.25;;;;;;;1.65;100.00;103799.13;5076308;28;20032;-34
2023/01/24 05:06:30;;;;;;;14.50;12.90;;;;;;;1.64;100.00;103797.44;5075411;28;20032;-34
2023/01/24 05:08:55;;;;;;;13.82;12.32;;;;;;;1.67;100.00;103802.56;5075113;28;20030;-34
2023/01/24 05:11:22;;;;;;;12.80;11.20;;;;;;;1.52;100.00;103778.59;5075354;28;20444;-34
2023/01/24 05:13:48;;;;;;;13.48;12.07;;;;;;;1.67;100.00;103805.25;5075569;28;20103;-34
2023/01/24 05:16:13;;;;;;;14.45;12.65;;;;;;;1.66;100.00;103812.38;5074842;28;20107;-34
2023/01/24 05:18:39;;;;;;;15.13;12.77;;;;;;;1.65;100.00;103805.31;5075413;28;20441;-34
2023/01/24 05:21:13;;;;;;;13.10;11.50;;;;;;;1.68;100.00;103814.94;5075138;28;20024;-34
2023/01/24 05:23:38;;;;;;;13.75;12.35;;;;;;;1.69;100.00;103812.16;5074735;28;20069;-34
2023/01/24 05:26:04;;;;;;;13.90;12.37;;;;;;;1.68;100.00;103807.78;5075001;28;20024;-34
2023/01/24 05:28:30;;;;;;;13.15;11.57;;;;;;;1.63;100.00;103806.38;5074732;28;20103;-34
2023/01/24 05:30:59;;;;;;;;;;;;;;;1.68;100.00;103812.28;5075318;28;20028;-34
2023/01/24 05:33:25;;;;;;;14.40;11.98;;;;;;;1.60;100.00;103807.44;5075112;28;19961;-34
2023/01/24 05:36:09;;;;;;;13.98;12.43;;;;;;;1.57;100.00;103812.97;5074414;28;20464;-34
2023/01/24 05:38:34;;;;;;;14.82;13.20;;;;;;;1.48;100.00;103814.44;5075354;28;20195;-34
2023/01/24 05:41:01;;;;;;;14.27;12.77;;;;;;;1.33;100.00;103790.56;5074438;28;20063;-34
2023/01/24 05:43:27;;;;;;;13.30;11.90;;;;;;;1.47;100.00;103806.53;5074345;28;20107;-34
2023/01/24 05:46:04;;;;;;;15.02;13.43;;;;;;;1.54;100.00;103814.03;5074586;28;20115;-34
2023/01/24 05:48:30;;;;;;;14.43;12.30;;;;;;;1.58;100.00;103820.03;5074756;28;20131;-34
2023/01/24 05:50:59;;;;;;;13.45;12.05;;;;;;;1.53;100.00;103811.47;5075212;28;20472;-34
2023/01/24 05:53:29;;;;;;;15.38;13.10;;;;;;;1.59;100.00;103828.88;5074727;28;20028;-34
2023/01/24 05:55:57;;;;;;;14.98;13.38;;;;;;;1.58;100.00;103830.69;5074919;28;20387;-34
2023/01/24 05:58:23;;;;;;;16.00;13.73;;;;;;;1.54;100.00;103834.50;5075327;28;20338;-34
2023/01/24 06:00:49;;;;;;;14.27;12.52;;;;;;;1.52;100.00;103837.28;5074336;28;20098;-34
2023/01/24 06:03:14;;;;;;;15.63;13.93;;;;;;;1.48;100.00;103837.56;5074910;28;20032;-34
2023/01/24 06:05:44;;;;;;;15.23;13.10;;;;;;;1.49;100.00;103841.94;5073979;28;20016;-34
2023/01/24 06:08:09;;;;;;;15.52;13.55;;;;;;;1.50;100.00;103838.31;5074245;28;20104;-34
2023/01/24 06:10:34;;;;;;;15.20;13.37;;;;;;;1.44;100.00;103825.38;5074226;28;20103;-34
2023/01/24 06:12:59;;;;;;;15.90;14.20;;;;;;;1.49;100.00;103847.28;5074024;28;20475;-34
2023/01/24 06:15:25;;;;;;;13.87;12.40;;;;;;;1.52;100.00;103847.09;5074874;28;20028;-35
2023/01/24 06:17:50;;;;;;;16.67;13.87;;;;;;;1.45;100.00;103840.44;5073973;28;20493;-34
2023/01/24 06:20:16;;;;;;;16.43;13.93;;;;;;;1.51;100.00;103845.34;5074494;28;20035;-34
2023/01/24 06:22:50;;;;;;;16.15;14.15;;;;;;;1.45;100.00;103843.94;5073903;28;20020;-34
2023/01/24 06:25:22;;;;;;;15.38;13.75;;;;;;;1.25;100.00;103818.56;5074423;28;20029;-34
2023/01/24 06:27:48;;;;;;;16.73;14.05;;;;;;;1.43;100.00;103847.69;5073774;28;20019;-34
2023/01/24 06:30:16;;;;;;;15.40;13.68;;;;;;;1.34;100.00;103833.13;5073816;28;20031;-34
2023/01/24 06:32:54;;;;;;;15.98;14.27;;;;;;;1.47;100.00;103851.88;5073470;28;20020;-34
2023/01/24 06:36:08;;;;;;;15.02;13.43;;;;;;;1.44;100.00;103849.38;5073768;28;20070;-35
2023/01/24 06:38:34;;;;;;;16.25;14.55;;;;;;;1.45;100.00;103851.94;5074116;28;20052;-34
2023/01/24 06:41:01;;;;;;;16.73;14.88;;;;;;;1.41;100.00;103852.25;5074541;28;20063;-34
2023/01/24 06:43:27;;;;;;;16.08;13.90;;;;;;;1.46;100.00;103847.47;5073634;28;20031;-34
2023/01/24 06:45:52;;;;;;;17.38;14.30;;;;;;;1.46;100.00;103859.00;5073929;28;20368;-35
2023/01/24 06:48:18;;;;;;;16.60;14.37;;;;;;;1.52;100.00;103857.78;5074222;28;20020;-34
2023/01/24 06:50:44;;;;;;;16.60;14.70;;;;;;;1.51;100.00;103862.25;5073310;28;20067;-34
2023/01/24 06:53:09;;;;;;;15.45;13.60;;;;;;;1.49;100.00;103852.63;5073324;28;20453;-34
2023/01/24 06:55:35;;;;;;;15.83;13.87;;;;;;;1.52;100.00;103857.78;5073708;28;20029;-34
2023/01/24 06:58:02;;;;;;;17.90;15.18;;;;;;;1.39;100.00;103846.16;5074047;28;20045;-34
2023/01/24 07:00:29;;;;;;;16.35;14.65;;;;;;;1.39;100.00;103864.81;5073915;28;20402;-34
2023/01/24 07:03:02;;;;;;;17.30;15.27;;;;;;;1.37;100.00;103861.41;5074009;28;20109;-34
2023/01/24 07:05:28;;;;;;;16.70;14.95;;;;;;;1.24;100.00;103867.50;5074060;28;20024;-34
2023/01/24 07:07:54;;;;;;;16.45;14.60;;;;;;;1.18;100.00;103859.03;5073755;28;20027;-34
2023/01/24 07:10:20;;;;;;;17.15;14.90;;;;;;;1.24;100.00;103869.31;5074040;28;20108;-34
2023/01/24 07:12:46;;;;;;;15.55;13.95;;;;;;;1.25;100.00;103869.22;5073185;28;20104;-34
2023/01/24 07:15:11;;;;;;;16.55;14.80;;;;;;;1.33;100.00;103873.22;5074035;28;20404;-34
2023/01/24 07:17:37;;;;;;;16.47;14.67;;;;;;;1.27;100.00;103871.81;5073848;28;20356;-34
2023/01/24 07:20:03;;;;;;;15.93;14.15;;;;;;;1.28;100.00;103881.50;5073618;28;20475;-34
2023/01/24 07:22:28;;;;;;;17.15;15.13;;;;;;;1.22;100.00;103871.19;5072963;28;20449;-34
2023/01/24 07:24:55;;;;;;;16.98;15.18;;;;;;;1.23;100.00;103894.25;5073668;28;20063;-34
2023/01/24 07:27:20;;;;;;;16.50;14.30;;;;;;;1.21;100.00;103893.47;5073246;28;20074;-34
2023/01/24 07:29:46;;;;;;;17.65;15.63;;;;;;;1.22;100.00;103901.41;5073616;28;20033;-34
2023/01/24 07:32:11;;;;;;;17.20;14.47;;;;;;;1.28;100.00;103906.34;5073033;28;20099;-34
2023/01/24 07:34:37;;;;;;;18.40;15.27;;;;;;;1.32;100.00;103900.81;5073222;28;20513;-34
2023/01/24 07:37:06;;;;;;;16.73;14.93;;;;;;;1.26;100.00;103894.91;5073132;28;20017;-34
2023/01/24 07:39:31;;;;;;;17.27;15.27;;;;;;;1.23;100.00;103903.13;5076367;28;20025;-34
2023/01/24 07:41:57;;;;;;;15.73;13.83;;;;;;;1.18;100.00;103886.56;5077816;28;20475;-34
2023/01/24 07:44:22;;;;;;;17.67;14.97;;;;;;;1.26;100.00;103902.91;5076458;28;20305;-34
2023/01/24 07:46:47;;;;;;;16.97;15.17;;;;;;;1.21;100.00;103897.00;5076919;28;20483;-34
2023/01/24 07:49:13;;;;;;;21.03;15.57;;;;;;;1.27;100.00;103912.66;5077422;28;20104;-34
2023/01/24 07:51:39;;;;;;;19.17;15.67;;;;;;;1.31;100.00;103905.28;5077058;28;20033;-34
2023/01/24 07:54:05;;;;;;;17.10;14.32;;;;;;;1.27;100.00;103907.31;5076726;28;20024;-34
2023/01/24 07:56:30;;;;;;;16.33;14.18;;;;;;;1.34;100.00;103913.09;5077468;28;20048;-35
2023/01/24 07:58:56;;;;;;;17.08;14.13;;;;;;;1.19;100.00;103896.25;5076952;28;20039;-35
2023/01/24 08:01:23;;;;;;;17.98;15.48;;;;;;;1.24;100.00;103909.31;5076686;28;20377;-35
2023/01/24 08:03:49;;;;;;;16.90;14.77;;;;;;;1.31;100.00;103923.09;5076624;28;20372;-35
2023/01/24 08:06:15;;;;;;;18.75;16.48;;;;;;;1.25;100.00;103922.53;5076720;28;20035;-35
2023/01/24 08:08:40;;;;;;;18.30;14.45;;;;;;;1.26;100.00;103905.56;5076664;28;20017;-35
2023/01/24 08:11:06;;;;;;;18.80;15.20;;;;;;;1.21;100.00;103917.47;5076461;28;20032;-35
2023/01/24 08:13:32;;;;;;;17.92;15.10;;;;;;;1.32;100.00;103925.69;5076220;28;20028;-35
2023/01/24 08:16:00;;;;;;;18.47;14.67;;;;;;;1.25;100.00;103903.00;5076256;28;20106;-35
2023/01/24 08:18:25;;;;;;;17.58;15.10;;;;;;;1.40;100.00;103925.19;5076560;28;20028;-36
2023/01/24 08:20:56;;;;;;;18.53;15.83;;;;;;;1.41;100.00;103921.56;5076842;28;20013;-35
2023/01/24 08:23:22;;;;;;;18.85;16.00;;;;;;;1.28;100.00;103921.50;5075580;28;20020;-35
2023/01/24 08:25:48;;;;;;;17.33;14.85;;;;;;;1.31;100.00;103915.94;5076647;28;20024;-35
2023/01/24 08:28:13;;;;;;;17.87;14.27;;;;;;;1.34;100.00;103913.09;5076233;28;20107;-35
2023/01/24 08:30:38;;;;;;;18.50;15.47;;;;;;;1.27;100.00;103917.13;5075777;28;20052;-35
2023/01/24 08:33:06;;;;;;;17.40;15.17;;;;;;;1.32;100.00;103936.34;5075865;28;20024;-35
2023/01/24 08:35:32;;;;;;;17.75;15.13;;;;;;;1.25;100.00;103929.66;5075655;28;20055;-35
2023/01/24 08:37:58;;;;;;;17.67;15.57;;;;;;;1.21;100.00;103918.34;5075701;28;20496;-35
2023/01/24 08:40:23;;;;;;;15.82;14.07;;;;;;;1.31;100.00;103929.28;5076294;28;20028;-35
2023/01/24 08:42:49;;;;;;;17.63;14.67;;;;;;;1.19;100.00;103922.06;5075883;28;20399;-35
2023/01/24 08:45:14;;;;;;;18.17;15.23;;;;;;;1.25;100.00;103949.19;5075919;28;20028;-35
2023/01/24 08:47:39;;;;;;;17.33;14.63;;;;;;;1.24;100.00;103957.28;5075570;28;20361;-35
2023/01/24 08:50:05;;;;;;;18.07;15.23;;;;;;;1.25;100.00;103959.84;5075509;28;20035;-35
2023/01/24 08:52:31;;;;;;;17.95;14.52;;;;;;;1.19;100.00;103944.25;5075974;28;20020;-35
2023/01/24 08:54:56;;;;;;;16.40;14.27;;;;;;;1.27;100.00;103957.97;5076302;28;20025;-35
2023/01/24 08:57:22;;;;;;;18.03;15.07;;;;;;;1.32;100.00;103956.81;5075249;28;20040;-35
2023/01/24 08:59:47;;;;;;;19.27;15.80;;;;;;;1.25;100.00;103957.19;5075916;28;20139;-34
2023/01/24 09:02:14;;;;;;;18.37;15.37;;;;;;;1.28;100.00;103957.00;5075519;28;20027;-35
2023/01/24 09:04:42;;;;;;;18.75;15.68;;;;;;;1.22;100.00;103965.38;5075728;28;20022;-35
2023/01/24 09:07:08;;;;;;;18.88;15.40;;;;;;;1.27;100.00;103957.13;5075154;28;20020;-35
2023/01/24 09:09:33;;;;;;;;;;;;;;;1.35;100.00;103968.16;5075836;28;20020;-35
2023/01/24 09:11:58;;;;;;;17.53;13.60;;;;;;;1.39;100.00;103952.81;5075853;28;19916;-35
2023/01/24 09:14:24;;;;;;;16.77;12.83;;;;;;;1.40;100.00;103954.53;5075322;28;20032;-35
2023/01/24 09:16:49;;;;;;;17.43;14.50;;;;;;;1.36;100.00;103961.84;5075167;28;20025;-35
2023/01/24 09:19:14;;;;;;;21.03;15.50;;;;;;;1.34;100.00;103966.44;5075510;28;20036;-35
2023/01/24 09:21:40;;;;;;;18.63;14.63;;;;;;;1.31;100.00;103952.44;5074878;28;20036;-35
2023/01/24 09:24:05;;;;;;;18.20;15.13;;;;;;;1.35;100.00;103960.16;5075649;28;20021;-35
2023/01/24 09:26:31;;;;;;;18.63;15.30;;;;;;;1.29;100.00;103963.19;5074997;28;20055;-35
2023/01/24 09:28:56;;;;;;;18.80;15.03;;;;;;;1.29;100.00;103961.38;5075061;28;20024;-35
2023/01/24 09:31:21;;;;;;;18.37;14.77;;;;;;;1.36;100.00;103961.00;5075002;28;20069;-35
2023/01/24 09:33:47;;;;;;;18.03;14.87;;;;;;;1.35;100.00;103964.63;5075736;28;20069;-34
2023/01/24 09:36:12;;;;;;;18.87;14.80;;;;;;;1.24;100.00;103959.94;5074532;28;20380;-34
2023/01/24 09:38:38;;;;;;;20.13;14.40;;;;;;;1.25;100.00;103957.19;5075107;28;20021;-34
2023/01/24 09:41:36;;;;;;;19.37;15.03;;;;;;;1.37;100.00;103963.59;5074487;28;20031;-34
2023/01/24 09:44:10;;;;;;;17.67;14.75;;;;;;;1.35;100.00;103972.63;5075043;28;20488;-34
2023/01/24 09:46:49;;;;;;;19.15;15.43;;;;;;;1.28;100.00;103958.81;5074618;28;20104;-34
2023/01/24 09:49:21;;;;;;;18.85;14.68;;;;;;;1.38;100.00;103970.63;5074668;28;20384;-34
2023/01/24 09:51:51;;;;;;;17.02;14.77;;;;;;;1.31;100.00;103960.44;5075030;28;20524;-35
2023/01/24 09:54:43;;;;;;;18.25;14.30;;;;;;;1.30;100.00;103964.91;5075012;28;20043;-34
2023/01/24 09:57:50;;;;;;;16.70;14.15;;;;;;;1.44;100.00;103977.41;5074606;28;20369;-34
2023/01/24 10:00:22;;;;;;;17.17;14.43;;;;;;;1.37;100.00;103968.94;5051688;28;20397;-34
2023/01/24 10:02:48;;;;;;;17.52;13.82;;;;;;;1.43;100.00;103973.03;5051954;28;20137;-35
2023/01/24 10:05:16;;;;;;;16.67;14.87;;;;;;;1.45;100.00;103979.97;5052345;28;20052;-35
2023/01/24 10:08:04;;;;;;;18.33;14.23;;;;;;;1.47;100.00;103986.06;5052239;28;20276;-34
2023/01/24 10:10:44;;;;;;;16.30;13.30;;;;;;;1.46;100.00;103984.34;5051836;28;20025;-36
2023/01/24 10:13:12;;;;;;;18.25;14.70;;;;;;;1.39;100.00;103969.69;5051801;28;20021;-34
2023/01/24 10:16:01;;;;;;;18.85;14.18;;;;;;;1.53;100.00;103974.16;5051970;28;20033;-35
2023/01/24 10:18:29;;;;;;;17.30;14.73;;;;;;;1.47;100.00;103986.06;5052033;28;20083;-35
2023/01/24 10:21:24;;;;;;;16.27;13.50;;;;;;;1.58;100.00;103981.88;5052345;28;20037;-34
2023/01/24 10:23:59;;;;;;;17.17;13.55;;;;;;;1.55;100.00;103975.75;5051072;28;20049;-34
2023/01/24 10:26:47;;;;;;;17.88;14.32;;;;;;;1.53;100.00;103968.81;5051521;28;20385;-33
2023/01/24 10:29:29;;;;;;;16.27;14.25;;;;;;;1.59;100.00;103986.25;5051928;28;20389;-34
2023/01/24 10:32:05;;;;;;;15.20;12.57;;;;;;;1.53;100.00;103977.69;5051930;28;20058;-34
2023/01/24 10:34:36;;;;;;;15.32;12.90;;;;;;;1.52;100.00;103967.13;5065905;28;20033;-35
2023/01/24 10:37:05;;;;;;;15.57;12.88;;;;;;;1.63;100.00;103972.63;5073301;28;20028;-40
2023/01/24 10:39:30;;;;;;;14.75;12.75;;;;;;;1.67;100.00;103973.31;5074120;28;20094;-34
2023/01/24 10:41:56;;;;;;;16.77;13.43;;;;;;;1.68;100.00;103975.88;5074128;28;20052;-34
2023/01/24 10:44:34;;;;;;;15.50;12.23;;;;;;;1.67;100.00;103973.31;5073520;28;20028;-34
2023/01/24 10:47:21;;;;;;;17.20;13.50;;;;;;;1.66;100.00;103976.91;5073392;28;20032;-35
2023/01/24 10:50:10;;;;;;;13.90;12.27;;;;;;;1.73;100.00;103979.09;5073924;28;20084;-35
2023/01/24 10:52:36;;;;;;;16.77;14.23;;;;;;;1.37;100.00;103950.25;5073803;28;20032;-35
2023/01/24 10:55:20;;;;;;;15.33;11.70;;;;;;;1.54;100.00;103973.22;5073472;28;20024;-35
2023/01/24 10:57:52;;;;;;;15.10;12.65;;;;;;;1.29;100.00;103953.38;5074045;28;20041;-35
2023/01/24 11:00:20;;;;;;;14.45;12.00;;;;;;;1.44;100.00;103980.06;5073545;28;20055;-35
2023/01/24 11:02:50;;;;;;;14.25;11.65;;;;;;;1.43;100.00;103971.22;5073451;28;20029;-35
2023/01/24 11:05:18;;;;;;;14.55;11.90;;;;;;;1.39;100.00;103969.69;5072523;28;20067;-35
2023/01/24 11:07:59;;;;;;;16.08;13.13;;;;;;;1.34;100.00;103961.09;5072159;28;20044;-35
2023/01/24 11:10:27;;;;;;;15.10;12.15;;;;;;;1.43;100.00;103965.88;5073790;28;20020;-35
2023/01/24 11:12:58;;;;;;;14.95;12.15;;;;;;;1.53;100.00;103971.50;5075742;28;20361;-35
2023/01/24 11:15:26;;;;;;;13.82;11.48;;;;;;;1.54;100.00;103958.06;5077301;28;20025;-35
2023/01/24 11:17:55;;;;;;;15.18;12.30;;;;;;;1.50;100.00;103963.66;5077006;28;20457;-35
2023/01/24 11:20:31;;;;;;;14.07;11.60;;;;;;;1.52;100.00;103965.31;5077496;28;20024;-35
2023/01/24 11:23:11;;;;;;;11.15;8.40;;;;;;;1.62;100.00;103954.91;5077420;28;20114;-35
2023/01/24 11:25:51;;;;;;;14.90;12.70;;;;;;;1.45;100.00;103953.28;5077322;28;20039;-35
2023/01/24 11:28:37;;;;;;;15.10;12.05;;;;;;;1.37;100.00;103941.41;5076724;28;20021;-35
2023/01/24 11:31:17;;;;;;;12.80;11.18;;;;;;;1.33;100.00;103945.22;5077533;28;20021;-35
2023/01/24 11:34:07;;;;;;;12.18;10.50;;;;;;;1.38;100.00;103951.13;5077279;28;20021;-36
2023/01/24 11:36:51;;;;;;;13.98;10.82;;;;;;;1.44;100.00;103945.41;5077134;28;20021;-35
2023/01/24 11:39:45;;;;;;;13.20;11.30;;;;;;;1.55;100.00;103941.09;5077055;28;20029;-34
2023/01/24 11:42:21;;;;;;;12.45;10.73;;;;;;;1.65;100.00;103940.50;5055309;28;20040;-34
2023/01/24 11:44:58;;;;;;;13.88;11.38;;;;;;;1.63;100.00;103929.94;5055090;28;20086;-34
2023/01/24 11:47:34;;;;;;;15.00;12.00;;;;;;;1.53;100.00;103926.16;5054854;28;20529;-34
2023/01/24 11:50:22;;;;;;;14.68;12.23;;;;;;;1.42;100.00;103925.97;5055173;28;20060;-35
2023/01/24 11:52:59;;;;;;;14.48;11.98;;;;;;;1.41;100.00;103934.91;5054610;28;20037;-34
2023/01/24 11:55:47;;;;;;;13.05;11.65;;;;;;;1.49;100.00;103930.81;5054784;28;20104;-34